sensor_id;sensor_type;location;lat;lon;timestamp;P1;durP1;ratioP1;P2;durP2;ratioP2
19107;SDS011;9686;48.832;9.126;2023-07-20T00:01:12;2.93;;;1.90;;
19107;SDS011;9686;48.832;9.126;2023-07-20T00:03:37;3.00;;;2.20;;
19107;SDS011;9686;48.832;9.126;2023-07-20T00:06:03;6.70;;;2.03;;
19107;SDS011;9686;48.832;9.126;2023-07-20T00:08:29;4.70;;;2.00;;
19107;SDS011;9686;48.832;9.126;2023-07-20T00:10:54;6.23;;;1.80;;
19107;SDS011;9686;48.832;9.126;2023-07-20T00:13:20;3.27;;;2.00;;
19107;SDS011;9686;48.832;9.126;2023-07-20T00:15:46;3.27;;;1.73;;
19107;SDS011;9686;48.832;9.126;2023-07-20T00:18:11;5.23;;;1.90;;
19107;SDS011;9686;48.832;9.126;2023-07-20T00:20:37;2.70;;;1.93;;
19107;SDS011;9686;48.832;9.126;2023-07-20T00:23:02;2.63;;;1.80;;
19107;SDS011;9686;48.832;9.126;2023-07-20T00:25:28;4.60;;;2.27;;
19107;SDS011;9686;48.832;9.126;2023-07-20T00:27:53;3.00;;;1.60;;
19107;SDS011;9686;48.832;9.126;2023-07-20T00:30:18;3.80;;;1.70;;
19107;SDS011;9686;48.832;9.126;2023-07-20T00:32:44;3.00;;;1.90;;
19107;SDS011;9686;48.832;9.126;2023-07-20T00:35:10;2.53;;;1.87;;
19107;SDS011;9686;48.832;9.126;2023-07-20T00:37:39;4.07;;;1.80;;
19107;SDS011;9686;48.832;9.126;2023-07-20T00:40:05;2.87;;;1.60;;
19107;SDS011;9686;48.832;9.126;2023-07-20T00:42:32;3.07;;;1.57;;
19107;SDS011;9686;48.832;9.126;2023-07-20T00:44:58;5.70;;;1.90;;
19107;SDS011;9686;48.832;9.126;2023-07-20T00:47:23;3.30;;;1.80;;
19107;SDS011;9686;48.832;9.126;2023-07-20T00:49:48;3.10;;;1.83;;
19107;SDS011;9686;48.832;9.126;2023-07-20T00:52:16;2.00;;;1.70;;
19107;SDS011;9686;48.832;9.126;2023-07-20T00:54:41;2.33;;;1.70;;
19107;SDS011;9686;48.832;9.126;2023-07-20T00:57:07;4.93;;;1.63;;
19107;SDS011;9686;48.832;9.126;2023-07-20T00:59:36;3.27;;;1.60;;
19107;SDS011;9686;48.832;9.126;2023-07-20T01:02:02;3.03;;;1.70;;
19107;SDS011;9686;48.832;9.126;2023-07-20T01:04:27;2.63;;;1.63;;
19107;SDS011;9686;48.832;9.126;2023-07-20T01:07:01;2.47;;;1.77;;
19107;SDS011;9686;48.832;9.126;2023-07-20T01:09:44;2.90;;;1.80;;
19107;SDS011;9686;48.832;9.126;2023-07-20T01:12:27;3.80;;;2.10;;
19107;SDS011;9686;48.832;9.126;2023-07-20T01:15:00;3.00;;;1.80;;
19107;SDS011;9686;48.832;9.126;2023-07-20T01:17:25;4.47;;;1.53;;
19107;SDS011;9686;48.832;9.126;2023-07-20T01:19:50;3.37;;;1.93;;
19107;SDS011;9686;48.832;9.126;2023-07-20T01:22:21;4.47;;;1.90;;
19107;SDS011;9686;48.832;9.126;2023-07-20T01:25:20;2.67;;;1.87;;
19107;SDS011;9686;48.832;9.126;2023-07-20T01:30:55;3.60;;;1.70;;
19107;SDS011;9686;48.832;9.126;2023-07-20T01:33:42;3.30;;;1.97;;
19107;SDS011;9686;48.832;9.126;2023-07-20T01:36:09;2.53;;;1.60;;
19107;SDS011;9686;48.832;9.126;2023-07-20T01:38:36;4.20;;;1.93;;
19107;SDS011;9686;48.832;9.126;2023-07-20T01:41:02;3.07;;;1.70;;
19107;SDS011;9686;48.832;9.126;2023-07-20T01:43:28;5.67;;;1.70;;
19107;SDS011;9686;48.832;9.126;2023-07-20T01:45:54;5.30;;;1.77;;
19107;SDS011;9686;48.832;9.126;2023-07-20T01:48:19;2.73;;;1.63;;
19107;SDS011;9686;48.832;9.126;2023-07-20T01:50:44;1.90;;;1.60;;
19107;SDS011;9686;48.832;9.126;2023-07-20T01:53:10;2.10;;;1.70;;
19107;SDS011;9686;48.832;9.126;2023-07-20T01:55:36;3.17;;;1.50;;
19107;SDS011;9686;48.832;9.126;2023-07-20T01:58:01;1.90;;;1.50;;
19107;SDS011;9686;48.832;9.126;2023-07-20T02:00:28;4.73;;;2.20;;
19107;SDS011;9686;48.832;9.126;2023-07-20T02:02:53;3.07;;;2.03;;
19107;SDS011;9686;48.832;9.126;2023-07-20T02:05:19;6.40;;;2.00;;
19107;SDS011;9686;48.832;9.126;2023-07-20T02:07:44;1.83;;;1.63;;
19107;SDS011;9686;48.832;9.126;2023-07-20T02:10:09;5.43;;;1.70;;
19107;SDS011;9686;48.832;9.126;2023-07-20T02:12:35;3.87;;;2.10;;
19107;SDS011;9686;48.832;9.126;2023-07-20T02:15:01;4.17;;;1.70;;
19107;SDS011;9686;48.832;9.126;2023-07-20T02:17:27;4.83;;;2.03;;
19107;SDS011;9686;48.832;9.126;2023-07-20T02:19:52;3.03;;;2.10;;
19107;SDS011;9686;48.832;9.126;2023-07-20T02:22:18;2.40;;;1.90;;
19107;SDS011;9686;48.832;9.126;2023-07-20T02:24:43;2.53;;;1.80;;
19107;SDS011;9686;48.832;9.126;2023-07-20T02:27:08;2.20;;;1.80;;
19107;SDS011;9686;48.832;9.126;2023-07-20T02:29:34;5.87;;;2.10;;
19107;SDS011;9686;48.832;9.126;2023-07-20T02:31:59;2.40;;;2.03;;
19107;SDS011;9686;48.832;9.126;2023-07-20T02:34:24;3.60;;;2.10;;
19107;SDS011;9686;48.832;9.126;2023-07-20T02:36:50;3.20;;;2.17;;
19107;SDS011;9686;48.832;9.126;2023-07-20T02:39:15;5.00;;;2.10;;
19107;SDS011;9686;48.832;9.126;2023-07-20T02:41:40;2.73;;;2.10;;
19107;SDS011;9686;48.832;9.126;2023-07-20T02:44:06;2.93;;;2.00;;
19107;SDS011;9686;48.832;9.126;2023-07-20T02:46:31;3.90;;;1.83;;
19107;SDS011;9686;48.832;9.126;2023-07-20T02:48:57;6.93;;;2.70;;
19107;SDS011;9686;48.832;9.126;2023-07-20T02:51:22;3.00;;;1.90;;
19107;SDS011;9686;48.832;9.126;2023-07-20T02:53:47;2.90;;;2.03;;
19107;SDS011;9686;48.832;9.126;2023-07-20T02:56:13;4.37;;;1.87;;
19107;SDS011;9686;48.832;9.126;2023-07-20T02:58:40;3.97;;;2.23;;
19107;SDS011;9686;48.832;9.126;2023-07-20T03:01:10;3.53;;;1.90;;
19107;SDS011;9686;48.832;9.126;2023-07-20T03:03:37;3.10;;;2.00;;
19107;SDS011;9686;48.832;9.126;2023-07-20T03:06:04;4.40;;;2.07;;
19107;SDS011;9686;48.832;9.126;2023-07-20T03:08:30;3.50;;;1.87;;
19107;SDS011;9686;48.832;9.126;2023-07-20T03:10:55;3.17;;;2.27;;
19107;SDS011;9686;48.832;9.126;2023-07-20T03:13:20;3.50;;;1.83;;
19107;SDS011;9686;48.832;9.126;2023-07-20T03:15:46;3.00;;;1.93;;
19107;SDS011;9686;48.832;9.126;2023-07-20T03:18:11;4.27;;;2.23;;
19107;SDS011;9686;48.832;9.126;2023-07-20T03:20:36;2.57;;;1.80;;
19107;SDS011;9686;48.832;9.126;2023-07-20T03:23:03;2.73;;;1.93;;
19107;SDS011;9686;48.832;9.126;2023-07-20T03:25:28;6.67;;;2.03;;
19107;SDS011;9686;48.832;9.126;2023-07-20T03:27:54;2.17;;;1.83;;
19107;SDS011;9686;48.832;9.126;2023-07-20T03:30:19;2.73;;;1.87;;
19107;SDS011;9686;48.832;9.126;2023-07-20T03:32:44;3.67;;;2.00;;
19107;SDS011;9686;48.832;9.126;2023-07-20T03:35:09;4.07;;;2.00;;
19107;SDS011;9686;48.832;9.126;2023-07-20T03:37:35;3.10;;;2.23;;
19107;SDS011;9686;48.832;9.126;2023-07-20T03:40:01;2.10;;;1.90;;
19107;SDS011;9686;48.832;9.126;2023-07-20T03:42:27;3.00;;;2.20;;
19107;SDS011;9686;48.832;9.126;2023-07-20T03:44:53;3.10;;;2.17;;
19107;SDS011;9686;48.832;9.126;2023-07-20T03:47:18;3.20;;;2.37;;
19107;SDS011;9686;48.832;9.126;2023-07-20T03:49:43;3.20;;;1.97;;
19107;SDS011;9686;48.832;9.126;2023-07-20T03:52:09;4.60;;;2.17;;
19107;SDS011;9686;48.832;9.126;2023-07-20T03:54:34;4.23;;;2.40;;
19107;SDS011;9686;48.832;9.126;2023-07-20T03:56:59;6.67;;;1.97;;
19107;SDS011;9686;48.832;9.126;2023-07-20T03:59:25;3.03;;;2.27;;
19107;SDS011;9686;48.832;9.126;2023-07-20T04:01:51;4.57;;;2.40;;
19107;SDS011;9686;48.832;9.126;2023-07-20T04:04:16;3.83;;;2.80;;
19107;SDS011;9686;48.832;9.126;2023-07-20T04:06:42;4.00;;;2.03;;
19107;SDS011;9686;48.832;9.126;2023-07-20T04:09:11;6.30;;;2.23;;
19107;SDS011;9686;48.832;9.126;2023-07-20T04:11:37;5.53;;;2.23;;
19107;SDS011;9686;48.832;9.126;2023-07-20T04:14:02;4.03;;;1.90;;
19107;SDS011;9686;48.832;9.126;2023-07-20T04:16:27;2.70;;;1.87;;
19107;SDS011;9686;48.832;9.126;2023-07-20T04:18:54;3.60;;;2.30;;
19107;SDS011;9686;48.832;9.126;2023-07-20T04:21:21;2.43;;;2.10;;
19107;SDS011;9686;48.832;9.126;2023-07-20T04:23:46;2.67;;;2.00;;
19107;SDS011;9686;48.832;9.126;2023-07-20T04:26:12;2.57;;;1.80;;
19107;SDS011;9686;48.832;9.126;2023-07-20T04:28:37;4.43;;;2.57;;
19107;SDS011;9686;48.832;9.126;2023-07-20T04:31:12;4.30;;;2.10;;
19107;SDS011;9686;48.832;9.126;2023-07-20T04:33:38;4.50;;;2.07;;
19107;SDS011;9686;48.832;9.126;2023-07-20T04:36:04;2.60;;;1.87;;
19107;SDS011;9686;48.832;9.126;2023-07-20T04:38:29;3.63;;;2.03;;
19107;SDS011;9686;48.832;9.126;2023-07-20T04:40:54;3.50;;;2.20;;
19107;SDS011;9686;48.832;9.126;2023-07-20T04:43:20;2.63;;;2.10;;
19107;SDS011;9686;48.832;9.126;2023-07-20T04:45:45;3.27;;;2.40;;
19107;SDS011;9686;48.832;9.126;2023-07-20T04:48:12;4.37;;;2.10;;
19107;SDS011;9686;48.832;9.126;2023-07-20T04:50:42;3.83;;;1.90;;
19107;SDS011;9686;48.832;9.126;2023-07-20T04:53:09;3.17;;;2.40;;
19107;SDS011;9686;48.832;9.126;2023-07-20T04:55:35;6.07;;;2.40;;
19107;SDS011;9686;48.832;9.126;2023-07-20T04:58:02;2.90;;;2.10;;
19107;SDS011;9686;48.832;9.126;2023-07-20T05:00:28;2.73;;;1.83;;
19107;SDS011;9686;48.832;9.126;2023-07-20T05:02:57;3.23;;;2.03;;
19107;SDS011;9686;48.832;9.126;2023-07-20T05:05:22;4.23;;;1.90;;
19107;SDS011;9686;48.832;9.126;2023-07-20T05:07:48;2.70;;;2.20;;
19107;SDS011;9686;48.832;9.126;2023-07-20T05:10:13;4.07;;;1.93;;
19107;SDS011;9686;48.832;9.126;2023-07-20T05:12:39;3.77;;;2.23;;
19107;SDS011;9686;48.832;9.126;2023-07-20T05:15:04;6.77;;;2.10;;
19107;SDS011;9686;48.832;9.126;2023-07-20T05:17:30;6.03;;;2.47;;
19107;SDS011;9686;48.832;9.126;2023-07-20T05:19:55;3.87;;;2.10;;
19107;SDS011;9686;48.832;9.126;2023-07-20T05:22:20;5.17;;;1.80;;
19107;SDS011;9686;48.832;9.126;2023-07-20T05:24:46;2.57;;;2.03;;
19107;SDS011;9686;48.832;9.126;2023-07-20T05:27:11;2.13;;;1.93;;
19107;SDS011;9686;48.832;9.126;2023-07-20T05:29:37;2.70;;;1.73;;
19107;SDS011;9686;48.832;9.126;2023-07-20T05:32:02;4.27;;;2.20;;
19107;SDS011;9686;48.832;9.126;2023-07-20T05:34:28;5.30;;;2.20;;
19107;SDS011;9686;48.832;9.126;2023-07-20T05:36:53;3.73;;;2.57;;
19107;SDS011;9686;48.832;9.126;2023-07-20T05:39:20;2.33;;;1.90;;
19107;SDS011;9686;48.832;9.126;2023-07-20T05:41:45;3.07;;;2.00;;
19107;SDS011;9686;48.832;9.126;2023-07-20T05:44:10;3.23;;;1.70;;
19107;SDS011;9686;48.832;9.126;2023-07-20T05:46:35;4.90;;;2.00;;
19107;SDS011;9686;48.832;9.126;2023-07-20T05:49:01;3.70;;;1.90;;
19107;SDS011;9686;48.832;9.126;2023-07-20T05:51:26;3.30;;;2.07;;
19107;SDS011;9686;48.832;9.126;2023-07-20T05:53:52;3.73;;;1.87;;
19107;SDS011;9686;48.832;9.126;2023-07-20T05:56:17;3.63;;;1.93;;
19107;SDS011;9686;48.832;9.126;2023-07-20T05:58:42;1.80;;;1.70;;
19107;SDS011;9686;48.832;9.126;2023-07-20T06:01:08;3.00;;;2.17;;
19107;SDS011;9686;48.832;9.126;2023-07-20T06:03:33;2.87;;;1.83;;
19107;SDS011;9686;48.832;9.126;2023-07-20T06:05:59;2.57;;;1.80;;
19107;SDS011;9686;48.832;9.126;2023-07-20T06:08:26;2.10;;;1.60;;
19107;SDS011;9686;48.832;9.126;2023-07-20T06:10:51;3.07;;;1.90;;
19107;SDS011;9686;48.832;9.126;2023-07-20T06:13:17;4.93;;;2.00;;
19107;SDS011;9686;48.832;9.126;2023-07-20T06:15:42;3.40;;;1.97;;
19107;SDS011;9686;48.832;9.126;2023-07-20T06:18:08;3.97;;;1.90;;
19107;SDS011;9686;48.832;9.126;2023-07-20T06:20:34;3.50;;;1.90;;
19107;SDS011;9686;48.832;9.126;2023-07-20T06:22:59;3.27;;;1.83;;
19107;SDS011;9686;48.832;9.126;2023-07-20T06:25:25;4.63;;;1.80;;
19107;SDS011;9686;48.832;9.126;2023-07-20T06:27:50;3.10;;;1.77;;
19107;SDS011;9686;48.832;9.126;2023-07-20T06:30:16;4.67;;;2.20;;
19107;SDS011;9686;48.832;9.126;2023-07-20T06:32:42;2.10;;;1.87;;
19107;SDS011;9686;48.832;9.126;2023-07-20T06:35:07;5.30;;;1.80;;
19107;SDS011;9686;48.832;9.126;2023-07-20T06:37:33;4.43;;;1.80;;
19107;SDS011;9686;48.832;9.126;2023-07-20T06:39:59;2.33;;;1.57;;
19107;SDS011;9686;48.832;9.126;2023-07-20T06:42:24;6.63;;;2.00;;
19107;SDS011;9686;48.832;9.126;2023-07-20T06:44:49;3.90;;;2.37;;
19107;SDS011;9686;48.832;9.126;2023-07-20T06:47:14;5.33;;;2.80;;
19107;SDS011;9686;48.832;9.126;2023-07-20T06:49:40;6.33;;;1.93;;
19107;SDS011;9686;48.832;9.126;2023-07-20T06:52:06;3.83;;;2.10;;
19107;SDS011;9686;48.832;9.126;2023-07-20T06:54:31;2.87;;;2.00;;
19107;SDS011;9686;48.832;9.126;2023-07-20T06:56:57;2.97;;;1.60;;
19107;SDS011;9686;48.832;9.126;2023-07-20T06:59:22;4.97;;;1.87;;
19107;SDS011;9686;48.832;9.126;2023-07-20T07:01:49;3.27;;;1.90;;
19107;SDS011;9686;48.832;9.126;2023-07-20T07:04:14;5.40;;;2.23;;
19107;SDS011;9686;48.832;9.126;2023-07-20T07:06:39;3.53;;;1.87;;
19107;SDS011;9686;48.832;9.126;2023-07-20T07:09:05;4.33;;;2.30;;
19107;SDS011;9686;48.832;9.126;2023-07-20T07:11:30;2.80;;;1.90;;
19107;SDS011;9686;48.832;9.126;2023-07-20T07:13:56;5.80;;;1.87;;
19107;SDS011;9686;48.832;9.126;2023-07-20T07:16:21;3.87;;;2.00;;
19107;SDS011;9686;48.832;9.126;2023-07-20T07:18:46;3.30;;;1.80;;
19107;SDS011;9686;48.832;9.126;2023-07-20T07:21:12;3.00;;;1.70;;
19107;SDS011;9686;48.832;9.126;2023-07-20T07:23:38;4.03;;;1.83;;
19107;SDS011;9686;48.832;9.126;2023-07-20T07:26:04;4.50;;;1.80;;
19107;SDS011;9686;48.832;9.126;2023-07-20T07:28:29;4.67;;;2.10;;
19107;SDS011;9686;48.832;9.126;2023-07-20T07:30:55;3.23;;;2.10;;
19107;SDS011;9686;48.832;9.126;2023-07-20T07:33:21;5.57;;;2.00;;
19107;SDS011;9686;48.832;9.126;2023-07-20T07:35:47;4.30;;;2.30;;
19107;SDS011;9686;48.832;9.126;2023-07-20T07:38:12;2.57;;;1.70;;
19107;SDS011;9686;48.832;9.126;2023-07-20T07:40:37;2.60;;;1.90;;
19107;SDS011;9686;48.832;9.126;2023-07-20T07:43:03;3.90;;;2.20;;
19107;SDS011;9686;48.832;9.126;2023-07-20T07:45:28;2.87;;;1.80;;
19107;SDS011;9686;48.832;9.126;2023-07-20T07:47:53;5.20;;;1.97;;
19107;SDS011;9686;48.832;9.126;2023-07-20T07:50:19;2.87;;;2.07;;
19107;SDS011;9686;48.832;9.126;2023-07-20T07:52:44;6.60;;;2.00;;
19107;SDS011;9686;48.832;9.126;2023-07-20T07:55:09;4.03;;;1.73;;
19107;SDS011;9686;48.832;9.126;2023-07-20T07:57:35;4.07;;;1.63;;
19107;SDS011;9686;48.832;9.126;2023-07-20T08:00:00;5.07;;;1.87;;
19107;SDS011;9686;48.832;9.126;2023-07-20T08:02:25;4.83;;;1.90;;
19107;SDS011;9686;48.832;9.126;2023-07-20T08:04:51;3.03;;;1.93;;
19107;SDS011;9686;48.832;9.126;2023-07-20T08:07:17;2.83;;;2.20;;
19107;SDS011;9686;48.832;9.126;2023-07-20T08:09:42;3.20;;;1.43;;
19107;SDS011;9686;48.832;9.126;2023-07-20T08:12:09;2.93;;;1.80;;
19107;SDS011;9686;48.832;9.126;2023-07-20T08:14:34;5.47;;;1.90;;
19107;SDS011;9686;48.832;9.126;2023-07-20T08:17:00;3.87;;;1.80;;
19107;SDS011;9686;48.832;9.126;2023-07-20T08:19:25;4.90;;;2.60;;
19107;SDS011;9686;48.832;9.126;2023-07-20T08:21:50;4.70;;;2.00;;
19107;SDS011;9686;48.832;9.126;2023-07-20T08:24:15;3.90;;;1.90;;
19107;SDS011;9686;48.832;9.126;2023-07-20T08:26:41;6.50;;;1.93;;
19107;SDS011;9686;48.832;9.126;2023-07-20T08:29:06;4.17;;;1.80;;
19107;SDS011;9686;48.832;9.126;2023-07-20T08:31:31;3.30;;;2.00;;
19107;SDS011;9686;48.832;9.126;2023-07-20T08:33:57;6.27;;;1.70;;
19107;SDS011;9686;48.832;9.126;2023-07-20T08:36:22;4.37;;;2.03;;
19107;SDS011;9686;48.832;9.126;2023-07-20T08:38:48;2.30;;;1.50;;
19107;SDS011;9686;48.832;9.126;2023-07-20T08:41:14;6.00;;;2.00;;
19107;SDS011;9686;48.832;9.126;2023-07-20T08:43:40;5.20;;;1.80;;
19107;SDS011;9686;48.832;9.126;2023-07-20T08:46:08;2.97;;;2.10;;
19107;SDS011;9686;48.832;9.126;2023-07-20T08:48:37;2.77;;;1.60;;
19107;SDS011;9686;48.832;9.126;2023-07-20T08:51:04;3.07;;;1.83;;
19107;SDS011;9686;48.832;9.126;2023-07-20T08:53:29;4.77;;;2.00;;
19107;SDS011;9686;48.832;9.126;2023-07-20T08:55:57;2.03;;;1.70;;
19107;SDS011;9686;48.832;9.126;2023-07-20T08:58:24;3.93;;;1.70;;
19107;SDS011;9686;48.832;9.126;2023-07-20T09:00:51;2.90;;;1.80;;
19107;SDS011;9686;48.832;9.126;2023-07-20T09:03:18;6.07;;;1.70;;
19107;SDS011;9686;48.832;9.126;2023-07-20T09:05:44;2.17;;;1.47;;
19107;SDS011;9686;48.832;9.126;2023-07-20T09:08:10;1.93;;;1.67;;
19107;SDS011;9686;48.832;9.126;2023-07-20T09:10:35;2.50;;;1.60;;
19107;SDS011;9686;48.832;9.126;2023-07-20T09:13:00;3.47;;;1.80;;
19107;SDS011;9686;48.832;9.126;2023-07-20T09:15:26;5.50;;;1.83;;
19107;SDS011;9686;48.832;9.126;2023-07-20T09:17:51;3.30;;;1.70;;
19107;SDS011;9686;48.832;9.126;2023-07-20T09:20:19;6.07;;;1.73;;
19107;SDS011;9686;48.832;9.126;2023-07-20T09:22:45;4.83;;;1.50;;
19107;SDS011;9686;48.832;9.126;2023-07-20T09:27:39;3.87;;;1.47;;
19107;SDS011;9686;48.832;9.126;2023-07-20T09:30:09;2.33;;;1.40;;
19107;SDS011;9686;48.832;9.126;2023-07-20T09:32:39;1.87;;;1.67;;
19107;SDS011;9686;48.832;9.126;2023-07-20T09:35:06;5.23;;;1.80;;
19107;SDS011;9686;48.832;9.126;2023-07-20T09:37:37;1.43;;;1.30;;
19107;SDS011;9686;48.832;9.126;2023-07-20T09:40:02;3.33;;;1.50;;
19107;SDS011;9686;48.832;9.126;2023-07-20T09:42:31;5.70;;;1.60;;
19107;SDS011;9686;48.832;9.126;2023-07-20T09:44:57;2.07;;;1.47;;
19107;SDS011;9686;48.832;9.126;2023-07-20T09:47:22;2.47;;;1.40;;
19107;SDS011;9686;48.832;9.126;2023-07-20T09:49:49;2.33;;;1.50;;
19107;SDS011;9686;48.832;9.126;2023-07-20T09:52:14;4.27;;;1.37;;
19107;SDS011;9686;48.832;9.126;2023-07-20T09:54:40;2.50;;;1.13;;
19107;SDS011;9686;48.832;9.126;2023-07-20T09:57:10;3.10;;;1.33;;
19107;SDS011;9686;48.832;9.126;2023-07-20T09:59:37;2.70;;;1.20;;
19107;SDS011;9686;48.832;9.126;2023-07-20T10:02:04;4.87;;;1.30;;
19107;SDS011;9686;48.832;9.126;2023-07-20T10:04:40;3.20;;;1.13;;
19107;SDS011;9686;48.832;9.126;2023-07-20T10:07:08;2.17;;;1.00;;
19107;SDS011;9686;48.832;9.126;2023-07-20T10:09:36;2.40;;;1.30;;
19107;SDS011;9686;48.832;9.126;2023-07-20T10:12:04;1.93;;;1.07;;
19107;SDS011;9686;48.832;9.126;2023-07-20T10:14:32;2.90;;;1.30;;
19107;SDS011;9686;48.832;9.126;2023-07-20T10:17:03;2.20;;;1.30;;
19107;SDS011;9686;48.832;9.126;2023-07-20T10:19:33;2.27;;;1.20;;
19107;SDS011;9686;48.832;9.126;2023-07-20T10:22:07;2.23;;;1.30;;
19107;SDS011;9686;48.832;9.126;2023-07-20T10:24:37;4.70;;;1.70;;
19107;SDS011;9686;48.832;9.126;2023-07-20T10:27:04;1.63;;;1.30;;
19107;SDS011;9686;48.832;9.126;2023-07-20T10:29:30;2.97;;;1.20;;
19107;SDS011;9686;48.832;9.126;2023-07-20T10:31:57;2.27;;;1.40;;
19107;SDS011;9686;48.832;9.126;2023-07-20T10:34:22;2.53;;;0.93;;
19107;SDS011;9686;48.832;9.126;2023-07-20T10:36:48;1.97;;;1.13;;
19107;SDS011;9686;48.832;9.126;2023-07-20T10:42:11;1.43;;;1.20;;
19107;SDS011;9686;48.832;9.126;2023-07-20T10:44:37;3.43;;;1.40;;
19107;SDS011;9686;48.832;9.126;2023-07-20T10:47:11;2.27;;;1.30;;
19107;SDS011;9686;48.832;9.126;2023-07-20T10:52:25;2.43;;;1.20;;
19107;SDS011;9686;48.832;9.126;2023-07-20T10:54:50;2.03;;;1.30;;
19107;SDS011;9686;48.832;9.126;2023-07-20T10:57:28;1.10;;;1.00;;
19107;SDS011;9686;48.832;9.126;2023-07-20T11:00:11;1.20;;;0.80;;
19107;SDS011;9686;48.832;9.126;2023-07-20T11:02:42;1.27;;;1.07;;
19107;SDS011;9686;48.832;9.126;2023-07-20T11:05:31;2.03;;;1.30;;
19107;SDS011;9686;48.832;9.126;2023-07-20T11:08:04;2.03;;;1.30;;
19107;SDS011;9686;48.832;9.126;2023-07-20T11:10:50;1.87;;;1.13;;
19107;SDS011;9686;48.832;9.126;2023-07-20T11:13:54;2.30;;;1.30;;
19107;SDS011;9686;48.832;9.126;2023-07-20T11:16:32;2.03;;;1.27;;
19107;SDS011;9686;48.832;9.126;2023-07-20T11:18:57;1.30;;;1.10;;
19107;SDS011;9686;48.832;9.126;2023-07-20T11:21:23;3.70;;;1.30;;
19107;SDS011;9686;48.832;9.126;2023-07-20T11:23:49;1.50;;;1.30;;
19107;SDS011;9686;48.832;9.126;2023-07-20T11:26:16;1.67;;;1.00;;
19107;SDS011;9686;48.832;9.126;2023-07-20T11:28:44;1.77;;;1.40;;
19107;SDS011;9686;48.832;9.126;2023-07-20T11:31:14;3.40;;;1.10;;
19107;SDS011;9686;48.832;9.126;2023-07-20T11:33:41;1.53;;;0.90;;
19107;SDS011;9686;48.832;9.126;2023-07-20T11:36:08;1.50;;;1.40;;
19107;SDS011;9686;48.832;9.126;2023-07-20T11:38:33;1.03;;;0.93;;
19107;SDS011;9686;48.832;9.126;2023-07-20T11:40:59;1.33;;;1.20;;
19107;SDS011;9686;48.832;9.126;2023-07-20T11:43:24;1.30;;;1.00;;
19107;SDS011;9686;48.832;9.126;2023-07-20T11:45:50;3.37;;;1.03;;
19107;SDS011;9686;48.832;9.126;2023-07-20T11:48:16;1.98;;;1.30;;
19107;SDS011;9686;48.832;9.126;2023-07-20T11:50:42;1.45;;;1.10;;
19107;SDS011;9686;48.832;9.126;2023-07-20T11:53:07;1.58;;;1.08;;
19107;SDS011;9686;48.832;9.126;2023-07-20T11:55:33;4.00;;;1.17;;
19107;SDS011;9686;48.832;9.126;2023-07-20T11:58:05;1.60;;;1.00;;
19107;SDS011;9686;48.832;9.126;2023-07-20T12:00:32;2.63;;;1.25;;
19107;SDS011;9686;48.832;9.126;2023-07-20T12:02:58;2.75;;;1.10;;
19107;SDS011;9686;48.832;9.126;2023-07-20T12:05:24;2.60;;;1.25;;
19107;SDS011;9686;48.832;9.126;2023-07-20T12:07:51;5.43;;;1.20;;
19107;SDS011;9686;48.832;9.126;2023-07-20T12:10:22;1.20;;;1.00;;
19107;SDS011;9686;48.832;9.126;2023-07-20T12:12:52;1.70;;;1.13;;
19107;SDS011;9686;48.832;9.126;2023-07-20T12:15:21;1.10;;;1.00;;
19107;SDS011;9686;48.832;9.126;2023-07-20T12:17:55;1.88;;;1.20;;
19107;SDS011;9686;48.832;9.126;2023-07-20T12:20:24;2.45;;;1.15;;
19107;SDS011;9686;48.832;9.126;2023-07-20T12:23:01;1.67;;;1.08;;
19107;SDS011;9686;48.832;9.126;2023-07-20T12:25:37;1.80;;;1.10;;
19107;SDS011;9686;48.832;9.126;2023-07-20T12:28:13;3.83;;;1.30;;
19107;SDS011;9686;48.832;9.126;2023-07-20T12:30:40;2.15;;;1.30;;
19107;SDS011;9686;48.832;9.126;2023-07-20T12:33:06;1.13;;;1.00;;
19107;SDS011;9686;48.832;9.126;2023-07-20T12:35:32;2.42;;;1.30;;
19107;SDS011;9686;48.832;9.126;2023-07-20T12:37:58;2.20;;;1.02;;
19107;SDS011;9686;48.832;9.126;2023-07-20T12:40:23;1.08;;;0.98;;
19107;SDS011;9686;48.832;9.126;2023-07-20T12:42:49;1.90;;;1.30;;
19107;SDS011;9686;48.832;9.126;2023-07-20T12:45:14;1.50;;;1.20;;
19107;SDS011;9686;48.832;9.126;2023-07-20T12:47:40;1.17;;;1.08;;
19107;SDS011;9686;48.832;9.126;2023-07-20T12:50:08;3.30;;;1.40;;
19107;SDS011;9686;48.832;9.126;2023-07-20T12:52:37;1.20;;;1.10;;
19107;SDS011;9686;48.832;9.126;2023-07-20T12:55:03;1.38;;;1.13;;
19107;SDS011;9686;48.832;9.126;2023-07-20T12:57:30;1.35;;;0.90;;
19107;SDS011;9686;48.832;9.126;2023-07-20T12:59:55;1.20;;;1.10;;
19107;SDS011;9686;48.832;9.126;2023-07-20T13:02:20;2.45;;;1.48;;
19107;SDS011;9686;48.832;9.126;2023-07-20T13:04:45;2.00;;;1.13;;
19107;SDS011;9686;48.832;9.126;2023-07-20T13:07:11;2.85;;;1.20;;
19107;SDS011;9686;48.832;9.126;2023-07-20T13:09:37;2.47;;;1.13;;
19107;SDS011;9686;48.832;9.126;2023-07-20T13:12:02;1.38;;;1.10;;
19107;SDS011;9686;48.832;9.126;2023-07-20T13:14:28;1.63;;;1.02;;
19107;SDS011;9686;48.832;9.126;2023-07-20T13:16:54;2.65;;;1.38;;
19107;SDS011;9686;48.832;9.126;2023-07-20T13:19:20;2.63;;;1.10;;
19107;SDS011;9686;48.832;9.126;2023-07-20T13:21:45;3.30;;;1.27;;
19107;SDS011;9686;48.832;9.126;2023-07-20T13:24:11;2.40;;;1.30;;
19107;SDS011;9686;48.832;9.126;2023-07-20T13:26:36;1.83;;;1.27;;
19107;SDS011;9686;48.832;9.126;2023-07-20T13:29:01;3.28;;;1.20;;
19107;SDS011;9686;48.832;9.126;2023-07-20T13:31:27;1.50;;;1.20;;
19107;SDS011;9686;48.832;9.126;2023-07-20T13:33:53;2.97;;;1.52;;
19107;SDS011;9686;48.832;9.126;2023-07-20T13:36:18;1.20;;;1.10;;
19107;SDS011;9686;48.832;9.126;2023-07-20T13:38:45;2.65;;;1.20;;
19107;SDS011;9686;48.832;9.126;2023-07-20T13:41:11;1.48;;;1.38;;
19107;SDS011;9686;48.832;9.126;2023-07-20T13:43:36;1.15;;;1.02;;
19107;SDS011;9686;48.832;9.126;2023-07-20T13:46:01;2.97;;;1.00;;
19107;SDS011;9686;48.832;9.126;2023-07-20T13:48:27;2.65;;;1.20;;
19107;SDS011;9686;48.832;9.126;2023-07-20T13:50:52;1.98;;;1.30;;
19107;SDS011;9686;48.832;9.126;2023-07-20T13:53:18;1.50;;;1.00;;
19107;SDS011;9686;48.832;9.126;2023-07-20T13:55:43;2.22;;;1.20;;
19107;SDS011;9686;48.832;9.126;2023-07-20T13:58:09;2.50;;;1.10;;
19107;SDS011;9686;48.832;9.126;2023-07-20T14:00:37;2.70;;;1.10;;
19107;SDS011;9686;48.832;9.126;2023-07-20T14:03:02;1.90;;;1.10;;
19107;SDS011;9686;48.832;9.126;2023-07-20T14:05:27;1.63;;;1.27;;
19107;SDS011;9686;48.832;9.126;2023-07-20T14:07:53;1.87;;;1.20;;
19107;SDS011;9686;48.832;9.126;2023-07-20T14:10:19;1.75;;;1.25;;
19107;SDS011;9686;48.832;9.126;2023-07-20T14:12:44;1.58;;;0.90;;
19107;SDS011;9686;48.832;9.126;2023-07-20T14:15:10;4.27;;;1.30;;
19107;SDS011;9686;48.832;9.126;2023-07-20T14:17:35;1.92;;;1.30;;
19107;SDS011;9686;48.832;9.126;2023-07-20T14:20:01;1.38;;;0.80;;
19107;SDS011;9686;48.832;9.126;2023-07-20T14:22:27;1.70;;;1.25;;
19107;SDS011;9686;48.832;9.126;2023-07-20T14:24:52;2.20;;;1.00;;
19107;SDS011;9686;48.832;9.126;2023-07-20T14:27:17;0.98;;;0.90;;
19107;SDS011;9686;48.832;9.126;2023-07-20T14:29:42;1.87;;;1.00;;
19107;SDS011;9686;48.832;9.126;2023-07-20T14:32:08;1.60;;;1.10;;
19107;SDS011;9686;48.832;9.126;2023-07-20T14:34:33;3.78;;;1.00;;
19107;SDS011;9686;48.832;9.126;2023-07-20T14:36:59;2.42;;;1.33;;
19107;SDS011;9686;48.832;9.126;2023-07-20T14:39:24;2.47;;;1.50;;
19107;SDS011;9686;48.832;9.126;2023-07-20T14:41:50;1.88;;;1.25;;
19107;SDS011;9686;48.832;9.126;2023-07-20T14:44:16;1.58;;;1.08;;
19107;SDS011;9686;48.832;9.126;2023-07-20T14:46:41;2.85;;;1.40;;
19107;SDS011;9686;48.832;9.126;2023-07-20T14:49:07;2.93;;;1.10;;
19107;SDS011;9686;48.832;9.126;2023-07-20T14:51:32;3.88;;;1.23;;
19107;SDS011;9686;48.832;9.126;2023-07-20T14:54:00;3.88;;;1.20;;
19107;SDS011;9686;48.832;9.126;2023-07-20T14:56:26;3.17;;;1.20;;
19107;SDS011;9686;48.832;9.126;2023-07-20T14:58:51;1.67;;;1.00;;
19107;SDS011;9686;48.832;9.126;2023-07-20T15:01:17;2.45;;;1.20;;
19107;SDS011;9686;48.832;9.126;2023-07-20T15:03:42;2.13;;;1.10;;
19107;SDS011;9686;48.832;9.126;2023-07-20T15:06:11;2.78;;;1.20;;
19107;SDS011;9686;48.832;9.126;2023-07-20T15:08:36;1.17;;;1.00;;